Time;durP1;ratioP1;P1;durP2;ratioP2;P2;SDS_P1;SDS_P2;PMS_P1;PMS_P2;Temp;Humidity;BMP_temperature;BMP_pressure;BME280_temperature;BME280_humidity;BME280_pressure;Samples;Min_cycle;Max_cycle;Signal;HPM_P1;HPM_P2
2023/06/27 00:01:52;;;;;;;11.63;7.47;;;26.20;97.40;;;;;;7399505;19;20507;-72
2023/06/27 00:04:19;;;;;;;12.77;8.57;;;26.20;97.20;;;;;;7374722;19;19939;-73
2023/06/27 00:06:45;;;;;;;17.55;9.45;;;26.20;97.40;;;;;;7401273;19;19919;-73
2023/06/27 00:09:11;;;;;;;15.70;8.68;;;26.10;98.30;;;;;;7398414;19;20781;-73
2023/06/27 00:11:38;;;;;;;15.82;10.10;;;26.10;99.10;;;;;;7398472;19;19943;-74
2023/06/27 00:14:08;;;;;;;15.10;11.25;;;26.00;99.60;;;;;;7402256;19;19926;-74
2023/06/27 00:16:39;;;;;;;15.65;10.00;;;26.00;99.90;;;;;;7403079;19;20338;-75
2023/06/27 00:19:05;;;;;;;18.00;9.38;;;26.00;99.90;;;;;;7397045;19;20359;-74
2023/06/27 00:21:31;;;;;;;16.00;9.45;;;26.00;99.90;;;;;;7399017;19;19921;-75
2023/06/27 00:24:01;;;;;;;18.10;10.18;;;26.00;99.90;;;;;;7402968;19;19914;-75
2023/06/27 00:26:31;;;;;;;15.77;10.30;;;25.90;99.90;;;;;;7400234;19;20031;-75
2023/06/27 00:29:01;;;;;;;13.27;9.98;;;25.80;99.90;;;;;;7400266;19;19918;-74
2023/06/27 00:31:27;;;;;;;14.60;9.50;;;25.90;99.90;;;;;;7400244;19;19923;-75
2023/06/27 00:33:52;;;;;;;15.10;9.38;;;25.90;99.90;;;;;;7402793;19;19915;-74
2023/06/27 00:36:18;;;;;;;12.27;8.23;;;25.90;99.90;;;;;;7398576;19;19928;-75
2023/06/27 00:38:44;;;;;;;16.40;8.77;;;25.80;99.90;;;;;;7398079;19;19933;-74
2023/06/27 00:41:10;;;;;;;15.73;9.70;;;25.70;99.90;;;;;;7400186;19;20107;-75
2023/06/27 00:43:36;;;;;;;12.77;8.25;;;25.70;99.90;;;;;;7398971;19;19977;-75
2023/06/27 00:46:06;;;;;;;13.23;8.63;;;25.60;99.90;;;;;;7395251;19;19918;-75
2023/06/27 00:48:32;;;;;;;14.93;8.75;;;25.60;99.90;;;;;;7401727;19;19995;-75
2023/06/27 00:50:59;;;;;;;16.00;9.85;;;25.60;99.90;;;;;;7401018;19;19935;-73
2023/06/27 00:53:26;;;;;;;12.98;7.95;;;25.60;99.90;;;;;;7400395;19;19919;-75
2023/06/27 00:55:52;;;;;;;11.48;8.30;;;25.60;99.90;;;;;;7399848;19;19907;-76
2023/06/27 00:58:20;;;;;;;12.23;8.35;;;25.50;99.90;;;;;;7394910;19;19918;-75
2023/06/27 01:00:48;;;;;;;12.52;8.75;;;25.60;99.90;;;;;;7369342;19;19914;-75
2023/06/27 01:03:14;;;;;;;16.13;9.27;;;25.60;99.90;;;;;;7397763;19;19921;-75
2023/06/27 01:05:40;;;;;;;15.57;8.73;;;25.50;99.90;;;;;;7397909;19;19914;-75
2023/06/27 01:08:08;;;;;;;15.40;9.50;;;25.50;99.90;;;;;;7394362;19;19914;-75
2023/06/27 01:10:49;;;;;;;17.70;10.30;;;25.40;99.90;;;;;;7398478;19;19918;-75
2023/06/27 01:13:29;;;;;;;18.15;11.48;;;25.40;99.90;;;;;;7398718;19;19923;-75
2023/06/27 01:15:57;;;;;;;19.35;12.30;;;25.40;99.90;;;;;;7400484;19;19922;-75
2023/06/27 01:18:27;;;;;;;23.98;15.15;;;25.30;99.90;;;;;;7365111;19;19923;-75
2023/06/27 01:20:53;;;;;;;22.35;15.20;;;25.30;99.90;;;;;;7395101;19;19951;-75
2023/06/27 01:23:30;;;;;;;19.48;13.90;;;25.30;99.90;;;;;;7392500;19;19931;-75
2023/06/27 01:26:07;;;;;;;21.60;14.80;;;25.20;99.90;;;;;;7398271;19;20343;-76
2023/06/27 01:28:33;;;;;;;18.75;13.48;;;25.20;99.90;;;;;;7397597;19;19921;-75
2023/06/27 01:31:01;;;;;;;15.68;11.75;;;25.20;99.90;;;;;;7399415;19;19919;-74
2023/06/27 01:34:07;;;;;;;18.85;12.45;;;25.30;99.90;;;;;;7371614;19;19915;-74
2023/06/27 01:36:47;;;;;;;20.50;13.18;;;25.20;99.90;;;;;;7391984;19;20378;-75
2023/06/27 01:39:18;;;;;;;18.65;12.73;;;25.20;99.90;;;;;;7394543;19;19982;-74
2023/06/27 01:41:51;;;;;;;19.40;12.77;;;25.20;99.90;;;;;;7398346;19;19948;-74
2023/06/27 01:44:19;;;;;;;18.63;12.07;;;25.20;99.90;;;;;;7397830;19;19919;-75
2023/06/27 01:46:47;;;;;;;15.35;11.68;;;25.20;99.90;;;;;;7397049;19;20308;-74
2023/06/27 01:49:14;;;;;;;16.73;11.13;;;25.10;99.90;;;;;;7398634;19;19922;-75
2023/06/27 01:51:41;;;;;;;17.02;11.10;;;25.20;99.90;;;;;;7395721;19;19918;-75
2023/06/27 01:54:07;;;;;;;17.75;11.45;;;25.10;99.90;;;;;;7396537;19;19951;-75
2023/06/27 01:56:33;;;;;;;16.60;11.38;;;25.10;99.90;;;;;;7395757;19;20335;-75
2023/06/27 01:58:59;;;;;;;15.50;10.85;;;25.10;99.90;;;;;;7394641;19;19922;-75
2023/06/27 02:01:25;;;;;;;17.02;10.98;;;25.00;99.90;;;;;;7397538;19;19919;-74
2023/06/27 02:03:50;;;;;;;15.50;10.82;;;25.10;99.90;;;;;;7394121;19;19914;-75
2023/06/27 02:06:16;;;;;;;14.88;9.25;;;25.10;99.90;;;;;;7395643;19;20784;-74
2023/06/27 02:08:43;;;;;;;16.63;11.05;;;25.00;99.90;;;;;;7396231;19;19925;-75
2023/06/27 02:11:09;;;;;;;16.88;10.15;;;25.00;99.90;;;;;;7397545;19;19914;-74
2023/06/27 02:13:36;;;;;;;14.43;9.77;;;25.00;99.90;;;;;;7401150;19;19983;-75
2023/06/27 02:16:02;;;;;;;13.95;9.20;;;25.00;99.90;;;;;;7403364;19;19911;-75
2023/06/27 02:18:28;;;;;;;13.55;9.20;;;25.00;99.90;;;;;;7349055;19;19922;-75
2023/06/27 02:20:54;;;;;;;15.00;9.02;;;25.00;99.90;;;;;;7400324;19;19931;-75
2023/06/27 02:23:20;;;;;;;11.25;8.52;;;25.00;99.90;;;;;;7404538;19;20232;-75
2023/06/27 02:25:46;;;;;;;12.82;8.65;;;25.00;99.90;;;;;;7398959;19;20278;-74
2023/06/27 02:28:11;;;;;;;11.13;8.60;;;25.00;99.90;;;;;;7402787;19;19927;-75
2023/06/27 02:30:37;;;;;;;14.02;8.45;;;24.90;99.90;;;;;;7401338;19;19919;-74
2023/06/27 02:33:03;;;;;;;12.10;7.88;;;25.00;99.90;;;;;;7401435;19;20338;-74
2023/06/27 02:35:29;;;;;;;12.38;8.88;;;24.90;99.90;;;;;;7403187;19;19922;-74
2023/06/27 02:37:54;;;;;;;14.20;8.48;;;24.90;99.90;;;;;;7398656;19;19907;-75
2023/06/27 02:40:20;;;;;;;13.73;7.80;;;24.80;99.90;;;;;;7403386;19;19922;-75
2023/06/27 02:42:46;;;;;;;12.48;7.85;;;24.90;99.90;;;;;;7400024;19;19920;-75
2023/06/27 02:45:12;;;;;;;14.50;8.77;;;24.90;99.90;;;;;;7400736;19;19930;-75
2023/06/27 02:47:38;;;;;;;14.05;8.95;;;24.80;99.90;;;;;;7401069;19;19907;-75
2023/06/27 02:50:04;;;;;;;;;;;24.80;99.90;;;;;;7377854;19;19917;-74
2023/06/27 02:52:29;;;;;;;12.63;7.63;;;24.80;99.90;;;;;;7358369;19;20324;-74
2023/06/27 02:54:55;;;;;;;14.15;8.68;;;24.80;99.90;;;;;;7403712;19;19926;-76
2023/06/27 02:57:21;;;;;;;16.48;10.10;;;24.80;99.90;;;;;;7400653;19;19930;-74
2023/06/27 02:59:47;;;;;;;14.45;8.65;;;24.90;99.90;;;;;;7397831;19;19945;-75
2023/06/27 03:02:12;;;;;;;13.27;9.20;;;24.90;99.90;;;;;;7398535;19;20269;-74
2023/06/27 03:04:38;;;;;;;15.15;8.95;;;24.80;99.90;;;;;;7398494;19;20367;-74
2023/06/27 03:07:04;;;;;;;16.60;9.82;;;24.80;99.90;;;;;;7398644;19;20332;-74
2023/06/27 03:09:31;;;;;;;14.38;9.45;;;24.80;99.90;;;;;;7398575;19;19921;-76
2023/06/27 03:11:57;;;;;;;13.93;9.20;;;24.80;99.90;;;;;;7401913;19;19929;-75
2023/06/27 03:14:22;;;;;;;12.35;9.05;;;24.80;99.90;;;;;;7400606;19;19919;-75
2023/06/27 03:16:48;;;;;;;14.32;9.60;;;24.80;99.90;;;;;;7402610;19;19942;-75
2023/06/27 03:19:14;;;;;;;15.45;9.13;;;24.80;99.90;;;;;;7399046;19;19919;-75
2023/06/27 03:21:40;;;;;;;11.95;7.93;;;24.80;99.90;;;;;;7400726;19;19970;-75
2023/06/27 03:24:06;;;;;;;14.27;8.82;;;24.70;99.90;;;;;;7400614;19;19919;-75
2023/06/27 03:26:32;;;;;;;13.90;9.10;;;24.70;99.90;;;;;;7399930;19;19922;-75
2023/06/27 03:28:57;;;;;;;11.20;7.88;;;24.70;99.90;;;;;;7402235;19;20251;-75
2023/06/27 03:31:23;;;;;;;11.82;8.85;;;24.70;99.90;;;;;;7398695;19;20362;-74
2023/06/27 03:33:50;;;;;;;13.25;8.98;;;24.70;99.90;;;;;;7402076;19;19922;-75
2023/06/27 03:36:16;;;;;;;13.60;8.57;;;24.70;99.90;;;;;;7398548;19;19915;-75
2023/06/27 03:38:42;;;;;;;12.98;8.35;;;24.70;99.90;;;;;;7401304;19;19962;-75
2023/06/27 03:41:07;;;;;;;12.50;8.77;;;24.70;99.90;;;;;;7397624;19;19922;-74
2023/06/27 03:43:33;;;;;;;14.77;8.55;;;24.70;99.90;;;;;;7401954;19;19918;-74
2023/06/27 03:45:59;;;;;;;14.95;9.50;;;24.70;99.90;;;;;;7398499;19;19914;-74
2023/06/27 03:48:25;;;;;;;12.55;8.52;;;24.70;99.90;;;;;;7395482;19;19911;-74
2023/06/27 03:50:51;;;;;;;13.50;8.82;;;24.70;99.90;;;;;;7394897;19;19919;-74
2023/06/27 03:53:16;;;;;;;13.68;8.10;;;24.70;99.90;;;;;;7395920;19;19933;-74
2023/06/27 03:55:42;;;;;;;16.73;8.30;;;24.60;99.90;;;;;;7400778;19;20625;-74
2023/06/27 03:58:08;;;;;;;12.35;7.63;;;24.70;99.90;;;;;;7401107;19;19915;-74
2023/06/27 04:00:34;;;;;;;13.68;8.13;;;24.70;99.90;;;;;;7398541;19;20372;-75
2023/06/27 04:03:00;;;;;;;13.50;8.15;;;24.70;99.90;;;;;;7398982;19;19910;-74
2023/06/27 04:05:25;;;;;;;13.48;7.63;;;24.60;99.90;;;;;;7398717;19;19929;-74
2023/06/27 04:07:51;;;;;;;12.10;7.55;;;24.60;99.90;;;;;;7399303;19;19946;-76
2023/06/27 04:10:18;;;;;;;11.43;7.82;;;24.60;99.90;;;;;;7398412;19;20011;-75
2023/06/27 04:12:44;;;;;;;11.27;7.35;;;24.60;99.80;;;;;;7400209;19;20469;-75
2023/06/27 04:15:10;;;;;;;14.32;7.55;;;24.60;99.70;;;;;;7401204;19;19934;-74
2023/06/27 04:17:35;;;;;;;10.07;6.80;;;24.60;99.40;;;;;;7398164;19;19955;-75
2023/06/27 04:20:02;;;;;;;13.20;7.43;;;24.60;99.20;;;;;;7397492;19;19982;-79
2023/06/27 04:22:27;;;;;;;10.60;6.28;;;24.60;99.00;;;;;;7396872;19;19922;-75
2023/06/27 04:24:53;;;;;;;9.30;6.35;;;24.60;98.70;;;;;;7398504;19;20257;-76
2023/06/27 04:27:19;;;;;;;14.45;7.85;;;24.50;98.60;;;;;;7401110;19;19918;-75
2023/06/27 04:29:45;;;;;;;11.32;7.25;;;24.50;98.40;;;;;;7396539;19;20014;-75
2023/06/27 04:32:10;;;;;;;8.80;6.47;;;24.60;98.30;;;;;;7397193;19;19950;-74
2023/06/27 04:34:36;;;;;;;10.23;7.65;;;24.60;98.10;;;;;;7397238;19;19918;-75
2023/06/27 04:37:03;;;;;;;9.05;7.38;;;24.60;98.00;;;;;;7397837;19;19922;-75
2023/06/27 04:39:29;;;;;;;10.98;7.20;;;24.60;97.80;;;;;;7398438;19;19946;-75
2023/06/27 04:41:56;;;;;;;11.30;6.75;;;24.60;97.60;;;;;;7399091;19;20258;-75
2023/06/27 04:44:22;;;;;;;11.98;6.95;;;24.60;97.50;;;;;;7399413;19;21019;-75
2023/06/27 04:46:48;;;;;;;10.15;7.50;;;24.60;97.30;;;;;;7401637;19;19922;-74
2023/06/27 04:49:14;;;;;;;12.13;6.63;;;24.60;97.40;;;;;;7398569;19;19922;-75
2023/06/27 04:51:40;;;;;;;9.88;6.70;;;24.60;97.30;;;;;;7394970;19;20011;-75
2023/06/27 04:54:06;;;;;;;9.88;7.35;;;24.60;97.40;;;;;;7396419;19;19926;-75
2023/06/27 04:56:33;;;;;;;9.55;6.28;;;24.60;97.30;;;;;;7395337;19;19918;-75
2023/06/27 04:58:59;;;;;;;10.75;7.28;;;24.70;97.30;;;;;;7395441;19;19918;-75
2023/06/27 05:01:25;;;;;;;12.65;7.20;;;24.70;97.30;;;;;;7398462;19;19942;-76
2023/06/27 05:03:52;;;;;;;10.68;7.68;;;24.70;97.20;;;;;;7397248;19;19926;-75
2023/06/27 05:06:18;;;;;;;12.60;6.82;;;24.70;97.20;;;;;;7395556;19;20830;-75
2023/06/27 05:08:44;;;;;;;9.85;6.55;;;24.70;97.30;;;;;;7398261;19;19906;-74
2023/06/27 05:11:10;;;;;;;12.20;7.80;;;24.70;97.40;;;;;;7394463;19;20367;-75
2023/06/27 05:13:36;;;;;;;12.20;8.02;;;24.70;97.50;;;;;;7395197;19;19918;-74
2023/06/27 05:16:02;;;;;;;11.10;7.18;;;24.80;97.50;;;;;;7399748;19;19922;-75
2023/06/27 05:18:28;;;;;;;10.35;7.70;;;24.80;97.50;;;;;;7401081;19;19923;-76
2023/06/27 05:20:54;;;;;;;14.38;6.95;;;24.90;97.50;;;;;;7398237;19;20552;-75
2023/06/27 05:23:21;;;;;;;;;;;24.90;97.50;;;;;;7401298;19;19911;-76
2023/06/27 05:25:48;;;;;;;10.30;7.28;;;24.90;97.40;;;;;;7399320;19;20032;-75
2023/06/27 05:28:13;;;;;;;15.00;7.50;;;25.00;97.30;;;;;;7393034;19;20342;-75
2023/06/27 05:30:39;;;;;;;11.77;7.75;;;25.00;97.00;;;;;;7397735;19;19925;-76
2023/06/27 05:33:05;;;;;;;12.57;6.95;;;25.10;96.70;;;;;;7398188;19;19925;-76
2023/06/27 05:35:31;;;;;;;11.43;7.22;;;25.10;95.70;;;;;;7401378;19;19948;-76
2023/06/27 05:37:58;;;;;;;9.73;7.07;;;25.10;95.10;;;;;;7392089;19;19918;-76
2023/06/27 05:40:24;;;;;;;13.73;6.88;;;25.10;94.70;;;;;;7398513;19;19930;-76
2023/06/27 05:42:50;;;;;;;10.95;6.82;;;25.20;94.40;;;;;;7397993;19;20445;-75
2023/06/27 05:45:15;;;;;;;11.52;6.85;;;25.20;93.80;;;;;;7398680;19;19929;-75
2023/06/27 05:47:42;;;;;;;12.75;7.10;;;25.20;93.80;;;;;;7402156;19;19960;-75
2023/06/27 05:50:09;;;;;;;11.90;6.63;;;25.30;93.10;;;;;;7399208;19;19907;-75
2023/06/27 05:52:35;;;;;;;13.38;6.47;;;25.30;92.50;;;;;;7402801;19;19923;-76
2023/06/27 05:55:00;;;;;;;12.45;6.80;;;25.30;92.20;;;;;;7405653;19;19943;-75
2023/06/27 05:57:26;;;;;;;12.07;6.88;;;25.40;91.80;;;;;;7401223;19;19925;-75
2023/06/27 05:59:52;;;;;;;11.40;7.25;;;25.50;91.60;;;;;;7401458;19;19970;-75
2023/06/27 06:02:18;;;;;;;10.60;6.40;;;25.50;91.20;;;;;;7400702;19;19915;-76
2023/06/27 06:04:44;;;;;;;14.82;7.10;;;25.60;91.10;;;;;;7402621;19;19910;-75
2023/06/27 06:07:10;;;;;;;10.15;6.18;;;25.60;90.90;;;;;;7398528;19;19921;-74
2023/06/27 06:09:37;;;;;;;10.98;6.32;;;25.70;90.90;;;;;;7402792;19;19925;-76
2023/06/27 06:12:03;;;;;;;13.38;6.18;;;25.70;90.80;;;;;;7400436;19;19929;-75
2023/06/27 06:14:28;;;;;;;9.73;6.43;;;25.70;90.60;;;;;;7402869;19;19911;-75
2023/06/27 06:16:54;;;;;;;12.80;6.63;;;25.70;90.80;;;;;;7403609;19;19922;-76
2023/06/27 06:19:20;;;;;;;;;;;25.70;91.10;;;;;;7406852;19;19919;-74
2023/06/27 06:21:46;;;;;;;14.00;6.93;;;25.80;91.20;;;;;;7405362;19;19915;-76
2023/06/27 06:24:14;;;;;;;8.38;5.97;;;25.90;91.00;;;;;;7400807;19;19928;-75
2023/06/27 06:26:40;;;;;;;10.43;6.32;;;25.90;90.90;;;;;;7402807;19;19950;-76
2023/06/27 06:29:08;;;;;;;9.10;6.38;;;25.90;90.90;;;;;;7396712;19;19918;-76
2023/06/27 06:31:34;;;;;;;12.27;5.88;;;25.90;90.80;;;;;;7402643;19;19927;-76
2023/06/27 06:34:00;;;;;;;9.60;6.35;;;26.00;90.80;;;;;;7402323;19;19918;-77
2023/06/27 06:36:25;;;;;;;11.18;5.82;;;26.00;91.10;;;;;;7397732;19;19918;-75
2023/06/27 06:38:51;;;;;;;9.93;7.10;;;25.90;91.60;;;;;;7401307;19;19948;-76
2023/06/27 06:41:20;;;;;;;10.00;6.22;;;26.00;91.70;;;;;;7396718;19;19914;-75
2023/06/27 06:43:46;;;;;;;12.65;7.10;;;26.10;91.50;;;;;;7401127;19;19906;-76
2023/06/27 06:46:12;;;;;;;11.50;6.63;;;26.10;91.50;;;;;;7398587;19;20528;-74
2023/06/27 06:48:38;;;;;;;11.63;7.03;;;26.10;91.50;;;;;;7399486;19;19921;-75
2023/06/27 06:51:04;;;;;;;14.52;7.80;;;26.20;91.40;;;;;;7399026;19;19921;-77
2023/06/27 06:53:29;;;;;;;13.60;6.47;;;26.20;91.40;;;;;;7400281;19;19934;-76
2023/06/27 06:55:55;;;;;;;10.35;6.88;;;26.20;91.50;;;;;;7402738;19;19915;-75
2023/06/27 06:58:21;;;;;;;10.40;6.93;;;26.20;91.20;;;;;;7400280;19;19923;-76
2023/06/27 07:00:47;;;;;;;12.10;6.70;;;26.30;90.50;;;;;;7402923;19;19914;-75
2023/06/27 07:03:13;;;;;;;8.32;5.07;;;26.40;89.40;;;;;;7397747;19;19926;-76
2023/06/27 07:05:41;;;;;;;7.80;5.47;;;26.50;87.20;;;;;;7398314;19;20260;-75
2023/06/27 07:08:07;;;;;;;9.57;5.90;;;26.60;87.80;;;;;;7398786;19;19918;-75
2023/06/27 07:10:36;;;;;;;8.50;5.72;;;26.50;89.50;;;;;;7389680;19;19986;-75
2023/06/27 07:13:01;;;;;;;16.70;10.32;;;26.60;90.60;;;;;;7400529;19;20262;-76
2023/06/27 07:15:29;;;;;;;12.73;9.82;;;26.60;91.30;;;;;;7403884;19;20397;-75
2023/06/27 07:17:55;;;;;;;12.68;6.57;;;26.60;92.20;;;;;;7396691;19;19945;-75
2023/06/27 07:20:22;;;;;;;10.05;7.45;;;26.70;92.30;;;;;;7396332;19;19975;-75
2023/06/27 07:22:49;;;;;;;12.35;7.35;;;26.80;92.10;;;;;;7397759;19;19948;-75
2023/06/27 07:25:14;;;;;;;10.68;7.10;;;26.90;91.90;;;;;;7388255;19;19914;-75
2023/06/27 07:27:42;;;;;;;10.75;7.65;;;26.90;91.90;;;;;;7356993;19;19932;-75
2023/06/27 07:30:08;;;;;;;12.80;8.60;;;26.80;92.10;;;;;;7345547;19;19943;-75
2023/06/27 07:32:34;;;;;;;10.15;7.63;;;26.60;92.60;;;;;;7384499;19;19929;-76
2023/06/27 07:35:00;;;;;;;12.65;8.55;;;26.70;92.80;;;;;;7396183;19;19918;-76
2023/06/27 07:37:25;;;;;;;11.73;7.97;;;26.80;92.60;;;;;;7400009;19;19930;-76
2023/06/27 07:39:51;;;;;;;12.10;8.98;;;26.90;92.10;;;;;;7397412;19;19982;-76
2023/06/27 07:42:17;;;;;;;12.55;8.82;;;26.90;91.50;;;;;;7397233;19;19916;-76
2023/06/27 07:44:43;;;;;;;12.20;9.48;;;26.80;91.40;;;;;;7398844;19;19974;-76
2023/06/27 07:47:11;;;;;;;12.48;8.60;;;26.70;92.10;;;;;;7397878;19;20509;-76
2023/06/27 07:49:39;;;;;;;13.07;8.35;;;26.80;92.20;;;;;;7399333;19;19918;-76
2023/06/27 07:52:12;;;;;;;12.30;8.32;;;26.90;92.10;;;;;;7398046;19;19919;-76
2023/06/27 07:54:38;;;;;;;12.07;8.90;;;27.00;91.90;;;;;;7396866;19;20522;-77
2023/06/27 07:57:05;;;;;;;14.40;9.07;;;27.30;91.50;;;;;;7330856;19;19956;-76
2023/06/27 07:59:30;;;;;;;16.85;9.45;;;27.30;91.20;;;;;;7347233;19;19930;-76
2023/06/27 08:01:56;;;;;;;12.48;8.63;;;27.40;90.70;;;;;;7354631;19;19915;-75
2023/06/27 08:04:22;;;;;;;13.02;9.10;;;27.40;90.60;;;;;;7324149;19;19928;-74
2023/06/27 08:06:48;;;;;;;;;;;27.30;90.90;;;;;;7353154;19;19935;-75
2023/06/27 08:09:14;;;;;;;12.82;8.68;;;27.40;90.80;;;;;;7360934;19;20316;-75
2023/06/27 08:11:40;;;;;;;13.48;8.18;;;27.40;90.70;;;;;;7358259;19;19911;-76
2023/06/27 08:14:06;;;;;;;10.57;7.70;;;27.50;90.60;;;;;;7346592;19;22289;-76
2023/06/27 08:16:33;;;;;;;12.88;8.10;;;27.60;90.60;;;;;;7340861;19;20833;-76
2023/06/27 08:18:59;;;;;;;16.73;9.65;;;27.50;91.20;;;;;;7375739;19;19921;-76
2023/06/27 08:21:25;;;;;;;13.98;9.65;;;27.80;90.70;;;;;;7310056;19;19985;-76
2023/06/27 08:23:51;;;;;;;15.35;9.75;;;27.90;90.50;;;;;;7346191;19;19911;-75
2023/06/27 08:26:17;;;;;;;11.43;8.70;;;27.70;90.90;;;;;;7342640;19;19922;-75
2023/06/27 08:28:44;;;;;;;12.55;7.90;;;27.70;91.20;;;;;;7345697;19;19922;-75
2023/06/27 08:31:11;;;;;;;12.57;8.50;;;27.80;91.10;;;;;;7347119;19;19922;-76
2023/06/27 08:33:37;;;;;;;13.52;8.40;;;28.10;90.50;;;;;;7355639;19;20254;-76
2023/06/27 08:36:03;;;;;;;12.35;9.10;;;28.30;89.40;;;;;;7347330;19;19915;-75
2023/06/27 08:38:29;;;;;;;10.93;7.68;;;28.50;89.20;;;;;;7370575;19;19918;-75
2023/06/27 08:40:56;;;;;;;12.00;8.20;;;28.60;88.60;;;;;;7362125;19;19921;-75
2023/06/27 08:43:22;;;;;;;12.48;7.38;;;28.50;87.00;;;;;;7343764;19;19961;-75
2023/06/27 08:45:49;;;;;;;11.20;8.10;;;28.60;86.70;;;;;;7342134;19;19915;-75
2023/06/27 08:48:16;;;;;;;12.20;8.50;;;28.80;86.60;;;;;;7336870;19;19919;-75
2023/06/27 08:50:43;;;;;;;10.88;6.85;;;29.00;85.30;;;;;;7363017;19;20434;-75
2023/06/27 08:53:17;;;;;;;11.65;7.88;;;28.80;85.40;;;;;;7345046;19;19914;-74
2023/06/27 08:56:04;;;;;;;16.13;8.40;;;28.70;85.30;;;;;;7357354;19;19922;-76
2023/06/27 08:59:05;;;;;;;10.38;7.80;;;28.70;85.20;;;;;;7358924;19;19989;-75
2023/06/27 09:01:34;;;;;;;11.95;8.52;;;28.90;85.00;;;;;;7345266;19;19992;-75
2023/06/27 09:04:01;;;;;;;10.88;8.05;;;29.20;83.30;;;;;;7347588;19;19939;-75
2023/06/27 09:06:28;;;;;;;14.35;8.82;;;28.90;81.50;;;;;;7348699;19;19938;-76
2023/06/27 09:08:54;;;;;;;;;;;28.50;82.20;;;;;;7350136;19;19914;-75
2023/06/27 09:11:20;;;;;;;10.82;8.50;;;27.80;84.10;;;;;;7333812;19;19918;-76
2023/06/27 09:13:47;;;;;;;11.23;8.70;;;27.80;85.40;;;;;;7339113;19;19925;-76
2023/06/27 09:16:13;;;;;;;11.18;7.93;;;27.60;87.90;;;;;;7361473;19;19914;-76
2023/06/27 09:18:40;;;;;;;13.35;8.05;;;27.50;87.10;;;;;;7355362;19;20392;-75
2023/06/27 09:21:06;;;;;;;15.25;8.07;;;27.70;87.30;;;;;;7355607;19;19931;-75
2023/06/27 09:23:32;;;;;;;10.70;8.65;;;27.80;85.10;;;;;;7362641;19;19982;-76
2023/06/27 09:26:14;;;;;;;12.57;7.47;;;27.70;84.60;;;;;;7340012;19;19911;-75
2023/06/27 09:28:51;;;;;;;11.95;7.65;;;27.40;85.50;;;;;;7336976;19;19932;-75
2023/06/27 09:31:18;;;;;;;11.55;7.97;;;27.40;86.30;;;;;;7361377;19;19974;-75
2023/06/27 09:33:44;;;;;;;14.98;8.07;;;27.50;86.60;;;;;;7356389;19;19921;-76
2023/06/27 09:36:11;;;;;;;8.05;6.38;;;27.60;85.50;;;;;;7360909;19;19919;-75
2023/06/27 09:38:37;;;;;;;9.57;6.13;;;27.50;83.60;;;;;;7345853;19;19986;-75
2023/06/27 09:41:07;;;;;;;8.85;6.13;;;27.70;84.40;;;;;;7356041;19;20366;-75
2023/06/27 09:43:35;;;;;;;10.60;6.78;;;27.90;80.70;;;;;;7346701;19;19930;-76
2023/06/27 09:46:03;;;;;;;9.55;6.50;;;27.80;82.50;;;;;;7362164;19;19932;-76
2023/06/27 09:48:29;;;;;;;10.50;5.88;;;27.90;81.10;;;;;;7341472;19;20327;-75
2023/06/27 09:51:07;;;;;;;9.68;6.07;;;28.20;78.50;;;;;;7349699;19;19914;-75
2023/06/27 09:53:33;;;;;;;8.30;6.32;;;28.00;76.80;;;;;;7351361;19;20892;-76
2023/06/27 09:56:01;;;;;;;10.55;5.95;;;28.10;76.60;;;;;;7352577;19;19946;-74
2023/06/27 09:58:31;;;;;;;9.10;5.28;;;28.30;76.70;;;;;;7356630;19;19954;-76
2023/06/27 10:01:06;;;;;;;8.23;5.75;;;28.20;73.80;;;;;;7360480;19;19948;-76
2023/06/27 10:03:33;;;;;;;9.48;5.32;;;28.30;73.30;;;;;;7344208;19;19923;-77
2023/06/27 10:06:00;;;;;;;13.82;6.47;;;28.50;72.10;;;;;;7362415;19;20631;-76
2023/06/27 10:08:30;;;;;;;8.68;4.45;;;28.30;70.80;;;;;;7335806;19;21575;-76
2023/06/27 10:10:57;;;;;;;11.57;4.90;;;28.10;71.40;;;;;;7318079;19;19906;-75
2023/06/27 10:13:24;;;;;;;8.95;4.65;;;28.30;71.10;;;;;;7337215;19;19935;-75
2023/06/27 10:15:50;;;;;;;8.48;4.90;;;28.70;68.80;;;;;;7354874;19;19910;-76
2023/06/27 10:18:16;;;;;;;9.20;5.15;;;28.50;68.30;;;;;;7327414;19;20351;-77
2023/06/27 10:20:45;;;;;;;12.65;5.47;;;28.50;68.30;;;;;;7336687;19;20689;-77
2023/06/27 10:23:12;;;;;;;9.55;3.88;;;28.20;69.60;;;;;;7371050;19;20440;-77
2023/06/27 10:25:39;;;;;;;10.40;5.28;;;28.50;69.70;;;;;;7368552;19;19922;-75
2023/06/27 10:28:06;;;;;;;10.18;5.47;;;28.50;66.40;;;;;;7333824;19;19929;-76
2023/06/27 10:30:58;;;;;;;7.47;4.55;;;28.30;68.10;;;;;;7368653;19;19914;-79
2023/06/27 10:33:39;;;;;;;7.32;4.95;;;28.20;68.60;;;;;;7373724;19;19923;-75
2023/06/27 10:36:10;;;;;;;11.20;5.32;;;28.50;67.90;;;;;;7403012;19;19918;-76
2023/06/27 10:38:37;;;;;;;10.25;5.35;;;28.70;67.00;;;;;;7374067;19;19929;-76
2023/06/27 10:41:10;;;;;;;6.95;3.67;;;28.60;67.20;;;;;;7399340;19;19919;-76
2023/06/27 10:43:50;;;;;;;10.73;5.50;;;28.60;67.50;;;;;;7404478;19;19921;-77
2023/06/27 10:46:26;;;;;;;9.02;5.28;;;28.80;68.20;;;;;;7400966;19;20702;-76
2023/06/27 10:49:01;;;;;;;9.40;4.82;;;28.00;68.40;;;;;;7402929;19;20239;-76
2023/06/27 10:51:35;;;;;;;7.20;5.22;;;27.70;71.40;;;;;;7404783;19;19940;-75
2023/06/27 10:54:07;;;;;;;10.77;5.00;;;28.00;72.90;;;;;;7400125;19;19911;-76
2023/06/27 10:56:37;;;;;;;8.32;4.60;;;28.10;73.70;;;;;;7402621;19;20318;-75
2023/06/27 10:59:04;;;;;;;8.35;4.88;;;27.90;71.90;;;;;;7404824;19;19914;-75
2023/06/27 11:01:31;;;;;;;9.73;5.07;;;28.10;72.30;;;;;;7404237;19;19917;-76
2023/06/27 11:03:57;;;;;;;7.68;4.30;;;28.50;71.20;;;;;;7401239;19;20331;-74
2023/06/27 11:06:40;;;;;;;11.18;5.30;;;28.80;70.10;;;;;;7401729;19;19949;-76
2023/06/27 11:09:10;;;;;;;6.75;5.10;;;28.60;70.90;;;;;;7397650;19;19930;-76
2023/06/27 11:11:38;;;;;;;10.32;5.97;;;28.50;70.50;;;;;;7401217;19;19921;-75
2023/06/27 11:14:08;;;;;;;8.25;5.45;;;28.30;70.90;;;;;;7395048;19;19915;-75
2023/06/27 11:16:34;;;;;;;10.23;5.55;;;28.80;68.80;;;;;;7376761;19;19919;-75
2023/06/27 11:19:04;;;;;;;7.10;5.35;;;29.10;69.70;;;;;;7363433;19;19931;-75
2023/06/27 11:21:31;;;;;;;8.38;5.43;;;29.10;68.60;;;;;;7344374;19;21073;-74
2023/06/27 11:24:00;;;;;;;7.97;5.55;;;29.30;67.60;;;;;;7349077;19;20266;-75
2023/06/27 11:26:27;;;;;;;7.78;6.20;;;29.30;65.70;;;;;;7359261;19;19915;-75
2023/06/27 11:28:52;;;;;;;;;;;29.20;64.80;;;;;;7341587;19;19911;-76
2023/06/27 11:31:18;;;;;;;8.55;6.45;;;29.50;62.60;;;;;;7362254;19;21543;-77
2023/06/27 11:33:44;;;;;;;8.00;4.85;;;29.40;61.40;;;;;;7342686;19;19962;-77
2023/06/27 11:36:10;;;;;;;5.85;5.10;;;29.00;62.60;;;;;;7344077;19;19942;-76
2023/06/27 11:38:36;;;;;;;10.90;5.20;;;29.00;63.50;;;;;;7348951;19;20288;-77
2023/06/27 11:41:02;;;;;;;8.82;6.13;;;29.70;64.10;;;;;;7356742;19;19994;-76
2023/06/27 11:43:29;;;;;;;11.77;5.95;;;30.40;62.70;;;;;;7349353;19;19911;-77
2023/06/27 11:45:58;;;;;;;;;;;30.20;63.80;;;;;;7363667;19;19925;-76
2023/06/27 11:48:28;;;;;;;11.05;6.00;;;30.00;64.30;;;;;;7307894;19;19926;-76
2023/06/27 11:51:12;;;;;;;7.70;5.25;;;30.00;64.70;;;;;;7352532;19;19977;-76
2023/06/27 11:53:44;;;;;;;12.10;6.00;;;30.00;64.70;;;;;;7361768;19;19915;-75
2023/06/27 11:56:10;;;;;;;10.30;6.03;;;30.10;64.80;;;;;;7371594;19;19918;-74
2023/06/27 11:58:38;;;;;;;8.73;5.60;;;30.00;63.40;;;;;;7347986;19;19923;-76
2023/06/27 12:01:13;;;;;;;9.07;5.43;;;29.80;64.90;;;;;;7371437;19;19941;-76
2023/06/27 12:03:39;;;;;;;7.95;5.38;;;29.90;63.40;;;;;;7371982;19;19942;-76
2023/06/27 12:06:04;;;;;;;8.98;6.20;;;30.60;64.40;;;;;;7393272;19;19941;-76
2023/06/27 12:08:34;;;;;;;7.88;6.13;;;30.10;65.10;;;;;;7402889;19;19970;-76
2023/06/27 12:11:03;;;;;;;7.05;5.50;;;30.00;64.70;;;;;;7400483;19;20295;-76
2023/06/27 12:13:35;;;;;;;9.10;5.68;;;29.60;67.80;;;;;;7378718;19;19919;-76
2023/06/27 12:16:04;;;;;;;8.13;6.32;;;30.40;65.20;;;;;;7397124;19;19926;-75
2023/06/27 12:18:34;;;;;;;10.68;6.80;;;30.60;65.00;;;;;;7400302;19;19914;-76
2023/06/27 12:21:00;;;;;;;9.27;6.25;;;30.30;68.60;;;;;;7401922;19;19918;-75
2023/06/27 12:23:29;;;;;;;7.43;6.40;;;30.00;67.10;;;;;;7379803;19;19934;-76
2023/06/27 12:25:57;;;;;;;7.90;5.30;;;29.70;67.80;;;;;;7378691;19;19938;-78
2023/06/27 12:28:25;;;;;;;11.85;6.07;;;29.30;69.40;;;;;;7402416;19;19923;-76
2023/06/27 12:30:51;;;;;;;9.88;5.65;;;30.40;68.20;;;;;;7402348;19;19941;-76
2023/06/27 12:33:16;;;;;;;;;;;30.30;70.10;;;;;;7404390;19;19915;-77
2023/06/27 12:35:42;;;;;;;10.07;6.55;;;29.80;71.80;;;;;;7400338;19;19951;-77
2023/06/27 12:38:08;;;;;;;9.98;5.22;;;30.00;72.60;;;;;;7399294;19;20272;-75
2023/06/27 12:40:35;;;;;;;;;;;30.10;72.20;;;;;;7403795;19;19949;-77
2023/06/27 12:43:03;;;;;;;7.78;5.00;;;30.50;72.00;;;;;;7403843;19;20275;-76